Terminal Aerodrome Forecast
Issued by NWS

Home | Current Version | Previous Version | Text Only | Print | Product List | Glossary On
Versions: 1 2 3 4 5 6 7 8 9 10 11 12 13 14
000
FTUS45 KVEF 280531
TAFDAG
TAF
KDAG 280531Z 2806/2906 24012KT P6SM SKC
     FM280800 27008KT P6SM SKC
     FM281600 30008KT P6SM SKC
     FM281900 01007KT P6SM SKC
     FM282300 30007KT P6SM SKC
     FM290400 23015KT P6SM SKC=

USA.gov is the U.S. government's official web portal to all federal, state and local government web resources and services.